• Join FlightAware (Why Join?)
  • Login
  • US Flag 
 
01:02AM EST


 

Airport Tracker/Info


-or-


 

Live Flight TrackerFlight Track Log ✈ MXF127 ✈ 15-Jun-2013 ✈ KMGY - KMGY

Flight Track Log - Related Links

Times and Time Zones

All times are in EDT time to prevent confusion due to time zone crossing. See the MXF127 flight status page for this flight to view local times or setup timezone preferences in your user account.

Time Position Orientation Groundspeed Altitude Reporting Facility
EDT Latitude Longitude Course Direction KTS MPH feet Rate Location/Type
02:47PM 39.5811 -84.2292 178° South 140 161 1,600  Level Indianapolis Center
02:48PM 39.5478 -84.2275 178° South 154 177 3,000 720 Climbing Indianapolis Center
02:49PM 39.5000 -84.2214 174° South 163 188 3,000  Level Indianapolis Center
02:50PM 39.4494 -84.2150 174° South 171 197 3,000 -60 Level Indianapolis Center
02:51PM 39.4092 -84.2475 212° Southwest 190 219 2,900  Descending Indianapolis Center
02:52PM 39.3689 -84.2861 217° Southwest 182 209 3,000  Climbing Indianapolis Center
02:53PM 39.3206 -84.3078 199° South 181 208 3,000  Level Indianapolis Center
02:54PM 39.2819 -84.3253 199° South 158 182 3,000 -60 Level Indianapolis Center
02:56PM 39.2167 -84.3500 196° South 107 123 2,900 -180 Descending Cincinnati TRACON
02:56PM 39.2156 -84.3578 260° West 128 147 2,700 -660 Descending Indianapolis Center
02:57PM 39.1667 -84.3833 202° Southwest 109 125 1,700 -660 Descending Cincinnati TRACON
02:58PM 39.1333 -84.4000 201° Southwest 119 137 1,100 -60 Descending Cincinnati TRACON
03:00PM 39.1985 -84.3639 23° Northeast  Level FlightAware Approximate
03:00PM 39.0833 -84.4167 23° Northeast 128 147 1,600  Level Cincinnati TRACON
03:01PM 39.0500 -84.4167 180° South 171 197 4,000 1,380 Climbing Cincinnati TRACON
03:02PM 39.0561 -84.3914 73° East 235 270 3,900 -120 Descending Indianapolis Center
03:03PM 39.1106 -84.3647 21° North 206 237 3,900  Level Indianapolis Center
03:04PM 39.1756 -84.3483 11° North 220 253 4,000  Climbing Indianapolis Center
03:05PM 39.2336 -84.3292 14° North 219 252 4,000  Level Indianapolis Center
03:06PM 39.3003 -84.3028 17° North 219 252 4,000  Level Indianapolis Center
03:07PM 39.3503 -84.2853 15° North 215 247 4,000  Level Indianapolis Center
03:08PM 39.4044 -84.2628 18° North 191 220 4,000  Level Indianapolis Center
03:09PM 39.4589 -84.2408 17° North 193 222 4,000 1,620 Level Indianapolis Center
03:10PM 39.4708 -84.1850 74° East 195 224 7,600 2,100 Climbing Indianapolis Center
03:11PM 39.4617 -84.1217 101° East 208 239 8,000 540 Climbing Indianapolis Center
03:12PM 39.4547 -84.0531 97° East 211 243 8,600 1,020 Climbing Indianapolis Center
03:12PM 39.4531 -84.0392 99° East 208 239 9,300 1,200 Climbing Indianapolis Center
03:13PM 39.4381 -83.9403 101° East 332 382 10,000 360 Climbing Indianapolis Center
03:14PM 39.4869 -83.9058 29° Northeast 281 323 10,000 -60 Level Indianapolis Center
03:15PM 39.5128 -83.9767 295° West 214 246 9,900 -660 Descending Indianapolis Center
03:15PM 39.5222 -83.9969 301° West 223 257 9,200 -2,460 Descending Indianapolis Center
03:16PM 39.5544 -84.0361 317° Northwest 225 259 7,400 -2,520 Descending Indianapolis Center
03:16PM 39.5686 -84.0556 313° West 228 262 6,600 -2,700 Descending Indianapolis Center
03:17PM 39.6011 -84.1072 309° West 250 288 4,400 -2,520 Descending Indianapolis Center
03:17PM 39.6122 -84.1225 313° West 234 269 4,000 -480 Descending Indianapolis Center
03:18PM 39.6306 -84.1628 301° West 189 217 4,000  Level Indianapolis Center
03:18PM 39.6411 -84.1819 306° West 215 247 4,000 -1,500 Level Indianapolis Center
03:19PM 39.6314 -84.2033 239° Southwest 129 148 2,500 -1,980 Descending Indianapolis Center
03:19PM 39.6142 -84.2125 202° Southwest 168 193 2,000 -1,200 Descending Indianapolis Center